Latest Weather Observations for Nullarbor

IDS60801

Issued at 7:31 pm CDT Saturday 25 February 2017 (issued every 30 minutes, with the page automatically refreshed every 10 minutes)

About weather observations | Map of weather stations | Latest weather observations for SA | Other Formats
Station Details ID: 018106 Name: NULLARBOR Lat: -31.45 Lon: 130.90 Height: 64.0 m
Data from the previous 72 hours. | See also: Recent months at Nullarbor
Date/Time
CDT
Temp
°C
App
Temp
°C
Dew
Point
°C
Rel
Hum
%
Delta-T
°C
Wind Press
QNH
hPa
Press
MSL
hPa
Rain since
9am
mm
Dir  Spd
km/h
Gust
km/h
Spd
kts
Gust
kts
25/07:30pm 19.2 13.8 13.8 71 3.1 SE 35 43 19 23 1020.4 1020.2 0.0
25/07:00pm 20.0 15.0 13.9 68 3.5 SE 33 44 18 24 1020.4 1020.2 0.0
25/06:30pm 20.8 15.4 14.0 65 3.9 SE 35 46 19 25 1020.5 1020.3 0.0
25/06:00pm 21.4 16.3 13.8 62 4.4 SE 33 43 18 23 1020.6 1020.4 0.0
25/05:30pm 21.6 16.8 14.0 62 4.4 SE 32 41 17 22 1020.9 1020.7 0.0
25/05:00pm 22.1 16.9 13.5 58 5.0 SE 33 41 18 22 1021.1 1020.9 0.0
25/04:30pm 21.7 16.5 12.8 57 5.1 SSE 32 43 17 23 1021.5 1021.3 0.0
25/04:00pm 22.4 17.3 13.2 56 5.3 SE 32 41 17 22 1021.8 1021.6 0.0
25/03:30pm 22.5 17.6 13.8 58 5.1 SE 32 43 17 23 1022.0 1021.8 0.0
25/03:00pm 22.2 17.2 13.5 57 5.0 SE 32 41 17 22 1022.5 1022.3 0.0
25/02:30pm 22.2 17.2 13.3 57 5.1 SE 32 43 17 23 1022.8 1022.6 0.0
25/02:00pm 22.4 17.7 13.2 56 5.3 SSE 30 41 16 22 1023.2 1022.9 0.0
25/01:30pm 22.5 17.9 13.6 57 5.2 SSE 30 41 16 22 1023.6 1023.3 0.0
25/01:00pm 22.4 18.0 14.0 59 4.9 SE 30 43 16 23 1023.9 1023.6 0.0
25/12:30pm 21.5 16.4 13.2 59 4.7 SE 32 41 17 22 1024.4 1024.1 0.0
25/12:00pm 21.8 18.1 13.9 61 4.6 SE 26 35 14 19 1024.9 1024.6 0.0
25/11:30am 20.7 16.5 13.6 64 4.1 ESE 28 35 15 19 1025.2 1024.9 0.0
25/11:00am 19.6 15.3 13.3 67 3.6 ESE 28 37 15 20 1025.4 1025.1 0.0
25/10:30am 18.8 14.9 13.2 70 3.2 ESE 26 33 14 18 1025.5 1025.2 0.0
25/10:00am 18.5 14.6 13.4 72 2.9 SE 26 32 14 17 1025.7 1025.4 0.0
25/09:30am 19.2 15.0 13.4 69 3.3 ESE 28 37 15 20 1025.7 1025.4 0.0
25/09:00am 17.5 13.6 13.4 77 2.3 ESE 26 37 14 20 1025.6 1025.3 0.0
25/08:30am 17.2 14.6 13.9 81 1.9 ESE 20 28 11 15 1025.5 1025.2 0.0
25/08:00am 15.8 13.3 13.5 86 1.3 ESE 19 24 10 13 1025.2 1024.9 0.0
25/07:30am 15.5 13.2 13.0 85 1.4 ESE 17 20 9 11 1025.0 1024.7 0.0
25/07:00am 16.0 13.2 13.3 84 1.5 ESE 20 26 11 14 1024.8 1024.5 0.0
25/06:30am 16.3 13.5 13.2 82 1.7 ESE 20 28 11 15 1024.5 1024.2 0.0
25/06:00am 16.7 13.7 13.6 82 1.7 ESE 22 30 12 16 1024.5 1024.2 0.0
25/05:30am 16.9 13.6 14.0 83 1.6 ESE 24 30 13 16 1024.4 1024.1 0.0
25/05:00am 16.9 14.5 13.8 82 1.8 ESE 19 22 10 12 1024.6 1024.3 0.0
25/04:30am 17.1 13.7 13.6 80 2.0 SE 24 32 13 17 1024.5 1024.2 0.0
25/04:00am 16.9 14.4 13.6 81 1.9 SE 19 24 10 13 1024.6 1024.3 0.0
25/03:30am 16.7 14.1 13.2 80 2.0 ESE 19 26 10 14 1024.7 1024.4 0.0
25/03:00am 16.8 13.8 12.5 76 2.4 ESE 20 28 11 15 1024.8 1024.5 0.0
25/02:30am 17.5 13.9 13.0 75 2.5 SE 24 32 13 17 1024.9 1024.6 0.0
25/02:00am 17.2 13.6 12.9 76 2.4 SE 24 30 13 16 1025.0 1024.7 0.0
25/01:30am 17.5 13.8 12.6 73 2.7 SE 24 33 13 18 1025.3 1025.0 0.0
25/01:00am 17.6 14.6 12.7 73 2.7 ESE 20 30 11 16 1025.7 1025.4 0.0
25/12:30am 18.2 13.4 12.9 71 3.0 ESE 30 37 16 20 1025.8 1025.5 0.0
25/12:00am 18.0 12.9 12.0 68 3.3 SE 30 43 16 23 1026.1 1025.8 0.0
 
Date/Time
CDT
Temp
°C
App
Temp
°C
Dew
Point
°C
Rel
Hum
%
Delta-T
°C
Wind Press
QNH
hPa
Press
MSL
hPa
Rain since
9am
mm
Dir  Spd
km/h
Gust
km/h
Spd
kts
Gust
kts
24/11:30pm 18.1 12.9 11.7 66 3.5 SE 30 41 16 22 1026.3 1026.0 0.0
24/11:00pm 18.7 14.3 12.9 69 3.3 SE 28 37 15 20 1026.3 1026.0 0.0
24/10:30pm 18.8 13.8 12.3 66 3.6 SE 30 39 16 21 1026.2 1025.9 0.0
24/10:00pm 18.8 14.2 12.3 66 3.6 SE 28 39 15 21 1026.1 1025.8 0.0
24/09:48pm 18.9 13.9 12.2 65 3.7 SE 30 48 16 26 1026.1 1025.8 0.0
24/09:30pm 18.9 14.3 12.4 66 3.6 SE 28 37 15 20 1026.1 1025.8 0.0
24/09:00pm 18.9 13.6 12.6 67 3.5 SE 32 39 17 21 1025.8 1025.5 0.0
24/08:30pm 18.5 13.8 12.0 66 3.6 SE 28 37 15 20 1025.7 1025.4 0.0
24/08:00pm 19.3 14.2 13.0 67 3.6 SE 32 43 17 23 1025.7 1025.4 0.0
24/07:30pm 19.5 13.5 12.0 62 4.2 SE 35 44 19 24 1025.6 1025.3 0.0
24/07:00pm 20.3 14.0 12.3 60 4.5 SE 37 48 20 26 1025.6 1025.3 0.0
24/06:30pm 20.3 14.7 12.0 59 4.6 SE 33 44 18 24 1025.7 1025.4 0.0
24/06:00pm 21.2 15.7 12.3 57 5.0 SE 33 46 18 25 1025.6 1025.3 0.0
24/05:30pm 22.0 16.1 12.5 54 5.4 SSE 35 43 19 23 1025.6 1025.3 0.0
24/05:15pm 21.8 15.7 11.8 53 5.6 SSE 35 46 19 25 1025.6 1025.3 0.0
24/05:00pm 21.7 15.6 11.7 53 5.6 SSE 35 52 19 28 1025.6 1025.3 0.0
24/04:57pm 21.6 15.4 11.3 52 5.7 SSE 35 52 19 28 1025.6 1025.3 0.0
24/04:30pm 22.1 15.9 11.5 51 5.9 SSE 35 46 19 25 1025.8 1025.5 0.0
24/04:00pm 22.4 16.4 12.1 52 5.8 SSE 35 48 19 26 1026.0 1025.7 0.0
24/03:30pm 22.0 16.7 13.1 57 5.1 SE 33 44 18 24 1026.2 1025.9 0.0
24/03:00pm 21.8 16.4 12.1 54 5.4 SSE 32 46 17 25 1026.4 1026.1 0.0
24/02:30pm 22.4 16.9 12.6 54 5.6 SSE 33 46 18 25 1026.7 1026.4 0.0
24/02:00pm 22.5 17.3 12.7 54 5.6 SSE 32 41 17 22 1027.1 1026.8 0.0
24/01:30pm 22.5 17.4 11.9 51 5.9 SE 30 43 16 23 1027.4 1027.1 0.0
24/01:00pm 23.1 18.1 12.1 50 6.2 SE 30 41 16 22 1027.4 1027.1 0.0
24/12:30pm 23.0 18.7 12.0 50 6.2 SE 26 35 14 19 1027.8 1027.5 0.0
24/12:00pm 22.1 17.1 12.1 53 5.6 SSE 30 41 16 22 1028.0 1027.7 0.0
24/11:30am 21.2 16.4 11.8 55 5.2 SE 28 39 15 21 1028.2 1028.0 0.0
24/11:00am 20.1 16.3 12.3 61 4.4 ESE 24 32 13 17 1028.2 1028.0 0.0
24/10:30am 20.2 16.9 12.7 62 4.2 ESE 22 30 12 16 1028.1 1027.9 0.0
24/10:00am 19.7 16.1 12.9 65 3.9 SE 24 32 13 17 1028.0 1027.7 0.0
24/09:30am 19.5 15.5 11.8 61 4.2 SE 24 28 13 15 1027.8 1027.5 0.0
24/09:00am 18.4 17.6 12.8 70 3.1 E 9 17 5 9 1027.5 1027.2 0.0
24/08:30am 17.8 15.7 12.3 70 3.0 SSE 15 20 8 11 1027.2 1026.9 0.0
24/08:00am 16.9 14.7 12.0 73 2.7 SSE 15 19 8 10 1027.1 1026.8 0.0
24/07:30am 16.2 13.8 11.4 73 2.6 SE 15 19 8 10 1026.6 1026.3 0.0
24/07:00am 16.5 14.1 11.4 72 2.8 SE 15 22 8 12 1026.2 1025.9 0.0
24/06:30am 17.0 13.7 11.5 70 3.0 SE 20 24 11 13 1026.1 1025.8 0.0
24/06:00am 17.2 14.5 11.7 70 3.0 SE 17 22 9 12 1025.9 1025.6 0.0
24/05:30am 17.3 15.5 12.2 72 2.8 SE 13 17 7 9 1025.8 1025.5 0.0
24/05:00am 16.3 14.5 12.1 76 2.3 SE 13 15 7 8 1025.7 1025.4 0.0
24/04:30am 15.8 13.3 11.2 74 2.5 SE 15 19 8 10 1025.7 1025.4 0.0
24/04:00am 16.6 14.2 11.5 72 2.8 SE 15 19 8 10 1025.6 1025.3 0.0
24/03:30am 16.4 14.5 11.8 74 2.5 SE 13 17 7 9 1025.8 1025.5 0.0
24/03:00am 15.9 13.6 11.7 76 2.3 SE 15 17 8 9 1025.8 1025.5 0.0
24/02:30am 16.6 13.8 11.5 72 2.8 SE 17 20 9 11 1025.8 1025.5 0.0
24/02:00am 16.4 13.8 12.0 75 2.4 SE 17 20 9 11 1025.8 1025.5 0.0
24/01:30am 15.6 13.2 12.5 82 1.7 SE 17 24 9 13 1025.9 1025.6 0.0
24/01:00am 13.4 10.7 10.4 82 1.6 SE 15 17 8 9 1026.0 1025.7 0.0
24/12:30am 14.2 11.6 10.6 79 1.9 SSE 15 17 8 9 1026.0 1025.7 0.0
24/12:00am 14.7 12.5 10.9 78 2.0 SSE 13 15 7 8 1026.0 1025.7 0.0
 
Date/Time
CDT
Temp
°C
App
Temp
°C
Dew
Point
°C
Rel
Hum
%
Delta-T
°C
Wind Press
QNH
hPa
Press
MSL
hPa
Rain since
9am
mm
Dir  Spd
km/h
Gust
km/h
Spd
kts
Gust
kts
23/11:30pm 14.2 11.5 10.4 78 2.0 SSE 15 17 8 9 1026.1 1025.8 0.0
23/11:00pm 14.7 12.2 10.9 78 2.0 SSE 15 17 8 9 1026.0 1025.7 0.0
23/10:30pm 14.5 11.8 10.3 76 2.2 SE 15 17 8 9 1025.7 1025.4 0.0
23/10:00pm 14.7 12.3 9.9 73 2.5 SE 13 13 7 7 1025.5 1025.2 0.0
23/09:30pm 15.7 13.3 10.2 70 2.9 S 13 15 7 8 1025.0 1024.7 0.0
23/09:00pm 17.3 15.1 10.7 65 3.5 SSE 13 17 7 9 1024.7 1024.4 0.0
23/08:30pm 18.6 15.2 10.7 60 4.3 S 19 24 10 13 1024.4 1024.1 0.0
23/08:00pm 19.8 16.0 11.0 57 4.8 S 22 30 12 16 1024.2 1023.9 0.0
23/07:30pm 20.2 16.5 11.4 57 4.8 SSE 22 33 12 18 1024.2 1023.9 0.0
23/07:00pm 20.4 16.6 11.3 56 5.0 SSE 22 30 12 16 1023.9 1023.6 0.0
23/06:30pm 20.7 17.2 12.1 58 4.8 S 22 30 12 16 1023.8 1023.5 0.0
23/06:00pm 21.0 17.4 11.9 56 5.1 SSE 22 33 12 18 1023.6 1023.3 0.0
23/05:30pm 21.4 17.9 12.3 56 5.1 SSE 22 32 12 17 1023.4 1023.1 0.0
23/05:00pm 22.3 19.2 12.3 53 5.7 S 20 28 11 15 1023.3 1023.0 0.0
23/04:30pm 23.0 19.3 11.4 48 6.5 S 22 32 12 17 1023.3 1023.0 0.0
23/04:00pm 23.1 19.0 11.5 48 6.5 S 24 35 13 19 1023.3 1023.0 0.0
23/03:30pm 23.0 19.9 11.7 49 6.3 S 19 26 10 14 1023.5 1023.2 0.0
23/03:00pm 23.8 20.7 12.1 48 6.6 S 20 28 11 15 1023.5 1023.2 0.0
23/02:30pm 23.8 20.5 11.5 46 6.9 S 20 32 11 17 1023.8 1023.5 0.0
23/02:00pm 22.9 19.4 11.0 47 6.6 S 20 30 11 16 1023.8 1023.5 0.0
23/01:30pm 23.0 19.2 11.1 47 6.6 S 22 33 12 18 1023.8 1023.5 0.0
23/01:00pm 22.2 18.6 10.7 48 6.3 S 20 30 11 16 1023.8 1023.5 0.0
23/12:30pm 21.7 18.4 10.8 50 6.0 S 19 28 10 15 1024.0 1023.7 0.0
23/12:00pm 22.6 19.0 10.7 47 6.5 SSE 20 32 11 17 1023.9 1023.6 0.0
23/11:30am 21.6 17.9 10.1 48 6.2 SSE 20 30 11 16 1024.1 1023.8 0.0
23/11:00am 21.8 18.1 10.3 48 6.3 S 20 28 11 15 1023.9 1023.6 0.0
23/10:30am 20.5 17.0 10.3 52 5.5 S 19 24 10 13 1023.8 1023.5 0.0
23/10:00am 19.7 17.1 10.7 56 4.9 SSW 15 22 8 12 1023.6 1023.3 0.0
23/09:30am 18.6 17.7 12.6 68 3.3 SSW 9 13 5 7 1023.2 1022.9 0.0
23/09:00am 15.9 16.2 14.4 91 0.9 W 6 7 3 4 1022.7 1022.5 0.0
23/08:30am 13.3 12.8 12.7 96 0.3 W 7 9 4 5 1022.4 1022.2 0.0
23/08:00am 10.9 9.3 10.3 96 0.3 WNW 9 11 5 6 1022.0 1021.8 0.0
23/07:30am 10.6 8.9 10.0 96 0.3 WNW 9 15 5 8 1021.6 1021.4 0.0
23/07:00am 11.1 9.5 10.3 95 0.4 WNW 9 11 5 6 1021.3 1021.1 0.0
23/06:30am 11.5 10.5 10.9 96 0.3 WNW 7 7 4 4 1021.0 1020.8 0.0
23/06:00am 11.3 9.8 10.4 94 0.5 NW 9 11 5 6 1020.8 1020.6 0.0
23/05:30am 11.7 9.8 10.6 93 0.6 W 11 13 6 7 1020.7 1020.5 0.0
23/05:00am 12.2 10.4 10.9 92 0.7 WNW 11 15 6 8 1020.6 1020.4 0.0
23/04:30am 13.0 12.4 11.6 91 0.7 WNW 6 7 3 4 1020.4 1020.2 0.0
23/04:00am 13.7 12.6 12.1 90 0.9 WSW 9 11 5 6 1020.4 1020.2 0.0
23/03:30am 13.2 11.7 11.8 91 0.7 W 11 13 6 7 1020.4 1020.2 0.0
23/03:00am 12.9 11.2 11.3 90 0.8 NW 11 13 6 7 1020.4 1020.2 0.0
23/02:30am 13.4 12.6 11.6 89 1.0 WNW 7 9 4 5 1020.3 1020.1 0.0
23/02:00am 13.8 14.4 11.8 88 1.1 CALM 0 4 0 2 1020.3 1020.1 0.0
23/01:30am 15.3 14.6 13.2 87 1.2 SSW 9 9 5 5 1020.5 1020.3 0.0
23/01:00am 15.3 14.1 12.8 85 1.4 SSW 11 13 6 7 1020.7 1020.5 0.0
23/12:30am 15.5 13.2 13.0 85 1.4 SSW 17 22 9 12 1020.5 1020.3 0.0
23/12:00am 14.8 12.9 11.9 83 1.6 SSW 13 17 7 9 1020.7 1020.5 0.0
 
Date/Time
CDT
Temp
°C
App
Temp
°C
Dew
Point
°C
Rel
Hum
%
Delta-T
°C
Wind Press
QNH
hPa
Press
MSL
hPa
Rain since
9am
mm
Dir  Spd
km/h
Gust
km/h
Spd
kts
Gust
kts
22/11:30pm 15.2 13.3 11.8 80 1.8 SSW 13 17 7 9 1020.8 1020.6 0.0
22/11:00pm 16.1 15.2 12.5 79 2.0 SSW 9 11 5 6 1020.6 1020.4 0.0
22/10:30pm 15.9 14.1 12.1 78 2.1 SSW 13 15 7 8 1020.3 1020.1 0.0
22/10:00pm 16.3 14.6 12.3 77 2.2 SSW 13 15 7 8 1020.0 1019.8 0.0
22/09:30pm 17.1 15.8 12.4 74 2.6 SSW 11 13 6 7 1019.7 1019.5 0.0
22/09:00pm 18.3 16.7 12.7 70 3.1 SSW 13 19 7 10 1019.2 1019.0 0.0
22/08:30pm 19.1 15.7 12.6 66 3.6 SSW 22 30 12 16 1018.7 1018.5 0.0
22/08:00pm 19.8 16.2 13.0 65 3.9 SSW 24 33 13 18 1018.2 1018.0 0.0

Other Formats:

Comma delimited format used in spreadsheet applications
http://www.bom.gov.au/fwo/IDS60801/IDS60801.94651.axf

JavaScript Object Notation format (JSON) in row-major order
http://www.bom.gov.au/fwo/IDS60801/IDS60801.94651.json